Time;durP1;ratioP1;P1;durP2;ratioP2;P2;SDS_P1;SDS_P2;PMS_P1;PMS_P2;Temp;Humidity;BMP_temperature;BMP_pressure;BME280_temperature;BME280_humidity;BME280_pressure;Samples;Min_cycle;Max_cycle;Signal;HPM_P1;HPM_P2
2023/06/21 00:00:00;;;;;;;11.50;7.38;;;22.70;99.90;;;;;;4964010;29;20098;-70
2023/06/21 05:03:58;;;;;;;12.95;8.77;;;21.30;99.90;;;;;;4926634;29;20056;-75
2023/06/21 05:06:25;;;;;;;12.68;8.10;;;21.40;99.90;;;;;;4943461;29;20036;-72
2023/06/21 05:08:53;;;;;;;11.35;7.93;;;21.60;99.90;;;;;;4928179;29;20040;-72
2023/06/21 05:11:19;;;;;;;12.18;7.80;;;21.80;99.90;;;;;;4929101;29;20091;-73
2023/06/21 05:13:44;;;;;;;13.50;7.50;;;21.90;99.90;;;;;;4928289;29;20229;-73
2023/06/21 05:16:10;;;;;;;12.00;7.65;;;22.10;99.90;;;;;;4928826;29;20111;-74
2023/06/21 05:18:36;;;;;;;11.25;7.57;;;22.10;99.90;;;;;;4912042;29;20027;-75
2023/06/21 05:21:02;;;;;;;11.93;7.97;;;22.20;99.90;;;;;;4928533;29;20036;-73
2023/06/21 05:23:28;;;;;;;11.27;7.68;;;22.10;99.90;;;;;;4928886;29;20028;-71
2023/06/21 05:25:54;;;;;;;11.60;8.23;;;22.00;99.90;;;;;;4928377;29;20449;-73
2023/06/21 05:28:19;;;;;;;11.93;8.38;;;22.10;99.90;;;;;;4928899;29;20027;-72
2023/06/21 05:30:45;;;;;;;12.05;7.95;;;22.30;99.90;;;;;;4928140;29;20052;-74
2023/06/21 05:33:11;;;;;;;11.27;8.00;;;22.40;99.90;;;;;;4928830;29;20079;-75
2023/06/21 05:35:36;;;;;;;11.07;7.25;;;22.30;99.90;;;;;;4928459;29;20322;-73
2023/06/21 05:38:03;;;;;;;10.30;8.20;;;22.40;99.90;;;;;;4928077;29;20299;-73
2023/06/21 05:40:28;;;;;;;10.57;7.57;;;22.40;99.90;;;;;;4912053;29;20317;-72
2023/06/21 05:42:54;;;;;;;10.02;7.35;;;22.50;99.90;;;;;;4927691;29;20028;-72
2023/06/21 05:45:20;;;;;;;12.90;7.72;;;22.40;99.90;;;;;;4928553;29;20040;-74
2023/06/21 05:47:46;;;;;;;19.13;8.77;;;22.50;99.90;;;;;;4927652;29;20339;-74
2023/06/21 05:50:12;;;;;;;12.25;8.07;;;22.60;99.90;;;;;;4928115;29;20051;-73
2023/06/21 05:52:37;;;;;;;10.25;7.60;;;22.50;99.90;;;;;;4928252;29;20032;-73
2023/06/21 05:55:03;;;;;;;10.32;8.02;;;22.70;99.90;;;;;;4927705;29;20048;-73
2023/06/21 05:57:29;;;;;;;15.25;8.63;;;22.70;99.90;;;;;;4939521;29;20040;-72
2023/06/21 05:59:56;;;;;;;13.98;8.32;;;22.80;99.90;;;;;;4946212;29;20098;-74
2023/06/21 06:02:21;;;;;;;10.65;7.32;;;22.80;99.90;;;;;;4948036;29;20058;-73
2023/06/21 06:04:48;;;;;;;14.27;7.68;;;22.90;99.90;;;;;;4961186;29;20035;-72
2023/06/21 06:07:14;;;;;;;8.80;6.47;;;22.90;99.90;;;;;;4946555;29;20040;-73
2023/06/21 06:09:39;;;;;;;12.73;7.18;;;23.00;99.90;;;;;;4946818;29;20039;-72
2023/06/21 06:12:05;;;;;;;13.15;7.00;;;22.90;99.90;;;;;;4946430;29;20035;-74
2023/06/21 06:14:31;;;;;;;14.15;6.90;;;22.90;99.90;;;;;;4945723;29;20333;-75
2023/06/21 06:16:57;;;;;;;12.48;7.53;;;23.00;99.90;;;;;;4945969;29;20096;-74
2023/06/21 06:19:22;;;;;;;10.98;6.97;;;23.00;99.90;;;;;;4946919;29;20217;-78
2023/06/21 06:21:48;;;;;;;12.40;7.68;;;23.20;99.90;;;;;;4946403;29;20213;-76
2023/06/21 06:24:14;;;;;;;10.23;6.40;;;23.40;99.90;;;;;;4946608;29;20040;-77
2023/06/21 06:26:40;;;;;;;9.40;6.28;;;23.50;99.90;;;;;;4946713;29;20086;-75
2023/06/21 06:29:05;;;;;;;9.00;6.53;;;23.70;99.90;;;;;;4946161;29;20038;-75
2023/06/21 06:31:31;;;;;;;11.73;6.40;;;23.90;99.90;;;;;;4946812;29;20096;-75
2023/06/21 06:33:57;;;;;;;10.32;6.18;;;23.90;99.90;;;;;;4945809;29;20051;-75
2023/06/21 06:36:22;;;;;;;9.10;6.43;;;24.10;99.90;;;;;;4961304;29;20063;-75
2023/06/21 06:38:49;;;;;;;9.80;6.18;;;24.00;99.90;;;;;;4945779;29;20256;-76
2023/06/21 06:41:15;;;;;;;10.95;5.82;;;24.00;99.90;;;;;;4946646;29;20032;-76
2023/06/21 06:43:41;;;;;;;9.98;6.30;;;23.80;99.90;;;;;;4946104;29;20035;-74
2023/06/21 06:46:07;;;;;;;11.73;6.60;;;24.00;99.90;;;;;;4945929;29;20071;-74
2023/06/21 06:48:33;;;;;;;12.48;6.35;;;24.00;99.90;;;;;;4944983;29;20023;-74
2023/06/21 06:50:58;;;;;;;13.05;6.65;;;23.90;99.90;;;;;;4945919;29;20095;-75
2023/06/21 06:53:24;;;;;;;14.52;6.50;;;23.80;99.90;;;;;;4946181;29;20046;-75
2023/06/21 06:55:51;;;;;;;8.27;5.60;;;24.00;99.90;;;;;;4945620;29;20118;-75
2023/06/21 06:58:20;;;;;;;11.05;6.13;;;24.20;99.90;;;;;;4963895;29;20244;-75
2023/06/21 07:00:46;;;;;;;8.77;5.85;;;24.20;99.90;;;;;;4965065;29;20023;-74
2023/06/21 07:03:12;;;;;;;9.23;5.97;;;24.30;99.90;;;;;;4959134;28;20051;-75
2023/06/21 07:05:43;;;;;;;10.10;6.10;;;24.60;99.90;;;;;;4946124;29;20185;-75
2023/06/21 07:08:11;;;;;;;8.82;5.88;;;25.00;99.90;;;;;;4945677;29;20104;-75
2023/06/21 07:10:37;;;;;;;8.48;5.82;;;25.30;99.90;;;;;;4945755;29;20043;-76
2023/06/21 07:13:02;;;;;;;8.52;6.13;;;25.50;99.90;;;;;;4945158;29;20317;-76
2023/06/21 07:15:28;;;;;;;8.05;5.15;;;25.60;99.90;;;;;;4945962;29;20072;-76
2023/06/21 07:17:55;;;;;;;7.20;5.63;;;25.70;99.90;;;;;;4945504;29;20023;-76
2023/06/21 07:20:21;;;;;;;7.22;5.65;;;25.60;99.90;;;;;;4945841;29;20036;-76
2023/06/21 07:22:47;;;;;;;8.75;5.53;;;25.60;99.90;;;;;;4945996;29;20102;-76
2023/06/21 07:25:13;;;;;;;8.18;5.80;;;25.90;99.90;;;;;;4944195;29;20275;-76
2023/06/21 07:27:38;;;;;;;8.05;5.55;;;25.80;99.90;;;;;;4945747;29;20059;-73
2023/06/21 07:30:05;;;;;;;10.10;5.82;;;26.20;99.90;;;;;;4945273;29;20035;-75
2023/06/21 07:32:32;;;;;;;10.27;5.90;;;26.50;99.90;;;;;;4945720;29;20035;-76
2023/06/21 07:34:59;;;;;;;9.17;5.80;;;26.80;99.90;;;;;;4945038;29;20039;-76
2023/06/21 07:37:27;;;;;;;9.10;5.38;;;27.10;99.90;;;;;;4942241;29;20024;-76
2023/06/21 07:39:56;;;;;;;10.25;6.10;;;27.30;99.90;;;;;;4944451;29;20333;-75
2023/06/21 07:42:23;;;;;;;8.70;5.43;;;27.10;99.90;;;;;;4945126;29;20272;-75
2023/06/21 07:44:50;;;;;;;8.27;5.50;;;27.10;99.90;;;;;;4944726;29;20102;-76
2023/06/21 07:47:17;;;;;;;7.28;5.07;;;27.10;99.90;;;;;;4944926;29;20383;-76
2023/06/21 07:49:43;;;;;;;9.23;5.45;;;27.00;99.90;;;;;;4945237;29;20035;-75
2023/06/21 07:52:09;;;;;;;10.95;5.20;;;26.90;99.90;;;;;;4944761;29;20276;-75
2023/06/21 07:54:35;;;;;;;7.80;4.75;;;26.90;99.90;;;;;;4945500;29;20036;-75
2023/06/21 07:57:00;;;;;;;6.38;5.00;;;26.50;99.90;;;;;;4952577;29;20019;-75
2023/06/21 07:59:26;;;;;;;7.68;5.47;;;26.50;99.90;;;;;;4964158;29;20261;-75
2023/06/21 08:01:52;;;;;;;8.00;5.50;;;26.50;99.90;;;;;;4963648;29;20437;-74
2023/06/21 08:04:18;;;;;;;7.78;5.28;;;26.70;99.90;;;;;;4950090;29;20083;-75
2023/06/21 08:06:43;;;;;;;10.23;5.38;;;26.80;99.90;;;;;;4944458;29;20031;-75
2023/06/21 08:09:09;;;;;;;8.30;5.28;;;27.10;99.90;;;;;;4944137;29;20042;-75
2023/06/21 08:11:35;;;;;;;11.93;5.57;;;27.40;99.90;;;;;;4944484;29;20032;-75
2023/06/21 08:14:00;;;;;;;8.95;5.10;;;27.60;99.90;;;;;;4943888;29;20028;-75
2023/06/21 08:16:26;;;;;;;8.88;5.10;;;27.50;99.90;;;;;;4945237;29;20302;-74
2023/06/21 08:18:52;;;;;;;7.60;4.72;;;27.30;99.90;;;;;;4944586;29;20028;-75
2023/06/21 08:21:18;;;;;;;8.32;5.07;;;27.20;99.90;;;;;;4945053;29;20035;-74
2023/06/21 08:23:43;;;;;;;6.10;4.80;;;26.80;99.90;;;;;;4944995;29;20166;-75
2023/06/21 08:26:09;;;;;;;12.02;5.32;;;26.70;99.90;;;;;;4944198;29;20039;-75
2023/06/21 08:28:34;;;;;;;9.15;4.95;;;26.40;99.90;;;;;;4944719;29;20024;-75
2023/06/21 08:31:00;;;;;;;6.82;4.35;;;26.20;99.90;;;;;;4944262;29;20035;-74
2023/06/21 08:33:26;;;;;;;8.85;4.57;;;26.00;99.90;;;;;;4944738;29;20063;-75
2023/06/21 08:35:52;;;;;;;6.93;4.43;;;25.90;99.90;;;;;;4943142;29;20313;-77
2023/06/21 08:38:17;;;;;;;6.97;4.43;;;25.70;99.90;;;;;;4931219;29;20043;-75
2023/06/21 08:40:45;;;;;;;8.60;4.68;;;25.60;99.90;;;;;;4948184;29;20036;-75
2023/06/21 08:43:11;;;;;;;8.18;4.10;;;25.60;99.90;;;;;;4948153;29;20098;-75
2023/06/21 08:45:37;;;;;;;6.60;4.05;;;25.40;99.90;;;;;;4948537;29;20023;-75
2023/06/21 08:48:05;;;;;;;6.57;4.20;;;25.30;99.90;;;;;;4948529;29;20193;-76
2023/06/21 08:50:34;;;;;;;8.23;4.72;;;25.40;99.90;;;;;;4949350;29;20055;-75
2023/06/21 08:53:05;;;;;;;7.30;4.57;;;25.20;99.90;;;;;;4948500;29;20035;-76
2023/06/21 08:55:35;;;;;;;9.90;4.38;;;25.30;99.90;;;;;;4948737;29;20043;-76
2023/06/21 08:58:08;;;;;;;8.30;4.50;;;25.30;99.90;;;;;;4947854;29;20032;-75
2023/06/21 09:00:41;;;;;;;10.23;5.53;;;25.20;99.90;;;;;;4967090;29;20031;-78
2023/06/21 09:03:16;;;;;;;8.57;4.40;;;25.10;99.90;;;;;;4966246;29;20054;-76
2023/06/21 09:06:04;;;;;;;10.63;4.60;;;25.00;99.90;;;;;;4967133;29;20044;-75
2023/06/21 09:08:34;;;;;;;6.72;4.55;;;24.80;99.90;;;;;;4981731;28;20208;-76
2023/06/21 09:11:00;;;;;;;10.07;4.93;;;24.80;99.90;;;;;;4966128;29;20049;-76
2023/06/21 09:13:27;;;;;;;7.40;4.25;;;24.60;99.90;;;;;;4966977;29;20035;-75
2023/06/21 09:15:55;;;;;;;7.95;4.22;;;24.30;99.90;;;;;;4966420;29;20023;-79
2023/06/21 09:18:22;;;;;;;9.95;4.22;;;24.00;99.90;;;;;;4966871;29;20110;-76
2023/06/21 09:20:49;;;;;;;8.35;4.70;;;23.90;99.90;;;;;;4967002;29;20364;-77
2023/06/21 09:23:15;;;;;;;7.63;4.60;;;23.70;99.90;;;;;;4966870;29;20034;-76
2023/06/21 09:25:42;;;;;;;12.20;5.47;;;23.60;99.90;;;;;;4967038;29;20031;-77
2023/06/21 09:28:08;;;;;;;11.50;5.90;;;23.50;99.90;;;;;;4966318;29;20043;-77
2023/06/21 09:30:34;;;;;;;10.60;5.60;;;23.40;99.90;;;;;;4966519;29;20356;-76
2023/06/21 09:33:00;;;;;;;8.57;5.50;;;23.40;99.90;;;;;;4966083;29;20037;-76
2023/06/21 09:35:25;;;;;;;10.05;6.07;;;23.30;99.90;;;;;;4966667;29;20063;-76
2023/06/21 09:37:51;;;;;;;12.48;5.78;;;23.00;99.90;;;;;;4961083;29;20031;-76
2023/06/21 09:40:17;;;;;;;11.23;6.05;;;23.00;99.90;;;;;;4930301;29;20035;-76
2023/06/21 09:42:45;;;;;;;12.90;8.55;;;22.90;99.90;;;;;;4961563;29;20031;-77
2023/06/21 09:45:20;;;;;;;11.47;6.97;;;22.70;99.90;;;;;;4946321;29;20238;-77
2023/06/21 09:47:46;;;;;;;13.68;7.20;;;22.80;99.90;;;;;;4946773;29;20434;-76
2023/06/21 09:50:12;;;;;;;15.32;7.07;;;22.70;99.90;;;;;;4946283;29;20152;-76
2023/06/21 09:52:45;;;;;;;17.25;9.88;;;22.70;99.90;;;;;;4929821;29;20038;-75
2023/06/21 09:55:15;;;;;;;19.42;9.40;;;22.50;99.90;;;;;;4946528;29;20233;-76
2023/06/21 09:57:41;;;;;;;15.68;8.50;;;22.50;99.90;;;;;;4946755;29;20038;-76
2023/06/21 10:00:07;;;;;;;14.75;7.82;;;22.40;99.90;;;;;;4965302;29;20255;-76
2023/06/21 10:02:39;;;;;;;15.93;7.40;;;22.40;99.90;;;;;;4966161;29;20098;-76
2023/06/21 10:05:06;;;;;;;11.60;7.82;;;22.50;99.90;;;;;;4965298;29;20019;-76
2023/06/21 10:07:42;;;;;;;14.05;7.93;;;22.50;99.90;;;;;;4966072;29;20095;-76
2023/06/21 10:10:08;;;;;;;11.40;6.97;;;22.40;99.90;;;;;;4948650;29;20150;-76
2023/06/21 10:12:34;;;;;;;11.85;7.70;;;22.20;99.90;;;;;;4965979;29;20039;-76
2023/06/21 10:15:00;;;;;;;13.00;7.80;;;22.30;99.90;;;;;;4965422;29;20037;-76
2023/06/21 10:17:27;;;;;;;9.60;6.97;;;22.10;99.90;;;;;;4965532;29;20046;-75
2023/06/21 10:19:54;;;;;;;9.40;7.47;;;22.10;99.90;;;;;;4965534;29;20045;-75
2023/06/21 10:22:21;;;;;;;12.68;6.95;;;22.10;99.90;;;;;;4981244;28;20070;-75
2023/06/21 10:24:52;;;;;;;11.65;7.40;;;22.30;99.90;;;;;;4966107;29;20027;-75
2023/06/21 10:27:19;;;;;;;11.70;8.13;;;22.20;99.90;;;;;;4948840;29;20269;-75
2023/06/21 10:29:49;;;;;;;11.40;7.72;;;22.20;99.90;;;;;;4965883;29;20031;-75
2023/06/21 10:32:15;;;;;;;11.13;7.82;;;22.30;99.90;;;;;;4965630;29;20019;-75
2023/06/21 10:35:08;;;;;;;12.27;7.38;;;22.30;99.90;;;;;;4980677;28;20065;-75
2023/06/21 10:38:01;;;;;;;14.52;8.07;;;22.50;99.90;;;;;;4963240;29;20090;-75
2023/06/21 10:40:28;;;;;;;11.80;7.18;;;22.50;99.90;;;;;;4950625;29;20042;-75
2023/06/21 10:42:55;;;;;;;11.52;7.93;;;22.60;99.90;;;;;;4949329;29;20035;-74
2023/06/21 10:45:22;;;;;;;12.13;7.72;;;22.80;99.90;;;;;;4949262;29;20024;-76
2023/06/21 10:47:49;;;;;;;13.45;8.23;;;23.00;99.90;;;;;;4948025;29;20031;-75
2023/06/21 10:50:17;;;;;;;11.87;8.20;;;23.40;99.90;;;;;;4946446;29;20043;-74
2023/06/21 10:52:44;;;;;;;11.13;8.23;;;23.90;99.90;;;;;;4945813;29;20321;-75
2023/06/21 10:55:20;;;;;;;13.05;8.80;;;24.20;99.90;;;;;;4945787;29;20333;-78
2023/06/21 10:57:46;;;;;;;14.00;9.00;;;24.50;99.90;;;;;;4959854;29;20035;-73
2023/06/21 11:00:13;;;;;;;12.18;8.43;;;24.70;99.90;;;;;;4964212;28;20039;-77
2023/06/21 11:02:39;;;;;;;13.27;8.50;;;24.90;99.90;;;;;;4976499;28;20225;-75
2023/06/21 11:05:23;;;;;;;14.30;7.47;;;25.30;99.90;;;;;;4963419;29;20050;-75
2023/06/21 11:08:00;;;;;;;14.50;9.80;;;25.90;99.90;;;;;;4965190;29;20055;-74
2023/06/21 11:10:49;;;;;;;12.98;8.82;;;26.30;99.90;;;;;;4964714;29;20035;-74
2023/06/21 11:13:16;;;;;;;8.75;6.85;;;26.30;99.90;;;;;;4964532;29;20380;-74
2023/06/21 11:15:46;;;;;;;10.55;7.45;;;26.10;99.90;;;;;;4964457;29;20102;-76
2023/06/21 11:18:20;;;;;;;10.05;6.55;;;26.20;99.90;;;;;;4962901;29;20103;-74
2023/06/21 11:20:51;;;;;;;7.22;5.95;;;26.10;99.90;;;;;;4964695;29;20054;-74
2023/06/21 11:23:25;;;;;;;8.25;6.05;;;26.40;99.90;;;;;;4964373;29;20098;-75
2023/06/21 11:25:52;;;;;;;11.02;6.30;;;26.40;99.90;;;;;;4963751;29;20154;-76
2023/06/21 11:28:25;;;;;;;9.32;5.40;;;26.60;99.90;;;;;;4964671;29;20204;-75
2023/06/21 11:31:06;;;;;;;11.00;5.50;;;26.60;99.90;;;;;;4963907;29;20089;-72
2023/06/21 11:33:45;;;;;;;8.98;5.75;;;27.20;99.90;;;;;;4964190;29;20380;-77
2023/06/21 11:36:11;;;;;;;8.23;5.60;;;27.50;99.90;;;;;;4964232;29;20225;-74
2023/06/21 11:38:46;;;;;;;9.00;5.75;;;27.80;99.90;;;;;;4953275;29;20079;-74
2023/06/21 11:41:36;;;;;;;6.95;5.05;;;28.10;99.90;;;;;;4944571;29;20456;-73
2023/06/21 11:44:02;;;;;;;8.25;5.22;;;28.40;99.90;;;;;;4944500;29;20067;-73
2023/06/21 11:46:31;;;;;;;7.82;5.30;;;29.10;99.90;;;;;;4945252;29;20031;-75
2023/06/21 11:49:00;;;;;;;8.80;5.28;;;29.80;99.90;;;;;;4944233;29;20091;-73
2023/06/21 11:51:30;;;;;;;8.98;5.18;;;30.00;99.90;;;;;;4944929;29;20031;-74
2023/06/21 11:53:56;;;;;;;7.55;4.93;;;29.80;99.90;;;;;;4944592;29;20038;-73
2023/06/21 11:57:09;;;;;;;7.97;5.57;;;30.10;99.90;;;;;;4947985;29;20035;-78
2023/06/21 11:59:43;;;;;;;11.02;6.00;;;31.10;99.90;;;;;;4963115;28;20027;-78
2023/06/21 12:02:25;;;;;;;8.63;6.13;;;32.40;99.90;;;;;;4963762;29;20222;-80
2023/06/21 12:04:51;;;;;;;10.18;6.10;;;32.10;99.90;;;;;;4947943;29;20062;-76
2023/06/21 12:07:25;;;;;;;10.43;6.97;;;31.70;99.90;;;;;;4964029;29;20031;-76
2023/06/21 12:09:51;;;;;;;9.35;6.28;;;31.80;99.90;;;;;;4963926;29;20031;-76
2023/06/21 12:12:16;;;;;;;9.65;6.60;;;31.80;99.90;;;;;;4966604;28;20046;-75
2023/06/21 12:14:42;;;;;;;12.43;7.35;;;31.60;99.90;;;;;;4968406;29;20042;-75
2023/06/21 12:17:14;;;;;;;11.13;6.97;;;31.70;99.90;;;;;;4968430;29;20119;-75
2023/06/21 12:19:40;;;;;;;10.07;6.80;;;32.20;99.90;;;;;;4968091;29;20313;-76
2023/06/21 12:22:05;;;;;;;9.10;6.38;;;32.80;99.90;;;;;;4967663;29;20063;-75
2023/06/21 12:24:32;;;;;;;8.98;6.85;;;33.30;99.90;;;;;;4968269;29;20030;-75
2023/06/21 12:27:00;;;;;;;9.88;6.78;;;33.70;99.90;;;;;;4965152;28;20094;-74
2023/06/21 12:29:27;;;;;;;9.23;7.18;;;34.10;99.90;;;;;;4964923;29;20084;-75
2023/06/21 12:31:56;;;;;;;12.32;6.90;;;33.50;99.90;;;;;;4947837;29;20024;-75
2023/06/21 12:34:23;;;;;;;12.15;7.35;;;33.00;99.90;;;;;;4948472;29;20051;-75
2023/06/21 12:36:48;;;;;;;12.00;7.53;;;32.30;99.90;;;;;;4948899;29;20059;-76
2023/06/21 12:39:15;;;;;;;11.25;7.28;;;31.90;99.90;;;;;;4930757;29;20036;-75
2023/06/21 12:41:43;;;;;;;10.38;7.10;;;31.40;99.90;;;;;;4948756;29;20022;-75
2023/06/21 12:44:21;;;;;;;8.20;6.28;;;32.20;99.90;;;;;;4947813;29;20233;-77
2023/06/21 12:46:48;;;;;;;8.75;6.80;;;33.10;99.90;;;;;;4948113;29;20055;-77
2023/06/21 12:49:14;;;;;;;9.40;6.38;;;34.50;99.60;;;;;;4947462;29;20250;-74
2023/06/21 12:51:41;;;;;;;8.18;5.15;;;36.20;97.80;;;;;;4948211;29;20039;-74
2023/06/21 12:54:14;;;;;;;7.82;5.32;;;37.70;95.90;;;;;;4947557;29;20044;-77
2023/06/21 12:56:42;;;;;;;6.45;4.80;;;39.10;94.30;;;;;;4948546;29;20036;-75
2023/06/21 12:59:11;;;;;;;7.25;5.10;;;40.40;92.80;;;;;;4931316;29;20095;-75
2023/06/21 13:01:37;;;;;;;18.23;16.33;;;41.20;90.70;;;;;;4947750;29;20341;-74
2023/06/21 13:04:06;;;;;;;8.53;5.27;;;41.10;81.70;;;;;;4930846;29;20095;-76
2023/06/21 13:06:31;;;;;;;7.05;5.28;;;41.30;73.10;;;;;;4937440;29;20456;-74
2023/06/21 13:08:58;;;;;;;6.97;4.63;;;39.60;60.80;;;;;;4927463;29;20040;-75
2023/06/21 13:11:25;;;;;;;6.25;4.75;;;39.60;63.40;;;;;;4928135;29;20047;-75
2023/06/21 13:13:51;;;;;;;8.50;5.63;;;40.20;62.90;;;;;;4928083;29;20040;-76
2023/06/21 13:16:17;;;;;;;7.60;4.85;;;41.10;61.50;;;;;;4929290;29;20042;-75
2023/06/21 13:18:45;;;;;;;7.10;4.93;;;41.30;60.40;;;;;;4945647;29;20031;-74
2023/06/21 13:21:11;;;;;;;7.65;4.78;;;40.00;61.20;;;;;;4950982;29;20032;-74
2023/06/21 13:23:38;;;;;;;7.22;4.68;;;38.60;63.00;;;;;;4939634;29;20043;-73
2023/06/21 13:26:03;;;;;;;9.25;4.93;;;38.80;64.10;;;;;;4928484;29;20322;-74
2023/06/21 13:28:29;;;;;;;7.30;4.97;;;39.20;62.50;;;;;;4928791;29;20111;-73
2023/06/21 13:30:55;;;;;;;6.95;5.05;;;39.50;61.80;;;;;;4928325;29;20031;-73
2023/06/21 13:33:21;;;;;;;7.35;4.53;;;40.40;61.50;;;;;;4928425;29;20067;-74
2023/06/21 13:35:47;;;;;;;6.70;4.90;;;41.70;59.20;;;;;;4928583;29;20040;-73
2023/06/21 13:38:13;;;;;;;9.25;4.20;;;42.20;58.20;;;;;;4935189;29;20051;-74
2023/06/21 13:40:40;;;;;;;7.40;4.38;;;42.40;58.10;;;;;;4947809;29;20082;-77
2023/06/21 13:43:06;;;;;;;4.93;4.07;;;40.90;58.30;;;;;;4945300;29;20035;-73
2023/06/21 13:45:32;;;;;;;7.38;4.45;;;39.40;60.60;;;;;;4936797;29;20035;-74
2023/06/21 13:47:58;;;;;;;7.38;4.80;;;38.30;61.10;;;;;;4946420;29;20043;-73
2023/06/21 13:50:24;;;;;;;8.57;4.47;;;36.80;62.90;;;;;;4947284;29;20035;-74
2023/06/21 13:52:50;;;;;;;6.47;4.43;;;36.40;64.30;;;;;;4947304;29;20031;-75
2023/06/21 13:55:15;;;;;;;6.45;4.70;;;36.10;65.80;;;;;;4946257;29;20091;-74
2023/06/21 13:57:41;;;;;;;6.28;4.63;;;35.60;65.40;;;;;;4947433;29;20247;-73
2023/06/21 14:00:15;;;;;;;6.03;4.45;;;35.10;66.40;;;;;;4946995;29;20027;-75
2023/06/21 14:02:42;;;;;;;6.18;4.57;;;35.50;66.10;;;;;;4946806;29;20160;-74
2023/06/21 14:05:09;;;;;;;6.88;4.38;;;36.90;63.90;;;;;;4935866;29;20159;-74
2023/06/21 14:07:36;;;;;;;7.53;4.65;;;37.70;62.70;;;;;;4928034;29;20060;-74
2023/06/21 14:10:02;;;;;;;6.47;4.32;;;37.70;61.90;;;;;;4927939;29;20024;-75
2023/06/21 14:12:28;;;;;;;8.35;4.80;;;37.10;62.60;;;;;;4927652;29;20043;-73
2023/06/21 14:14:54;;;;;;;6.45;4.38;;;37.00;63.20;;;;;;4926170;29;20382;-72
2023/06/21 14:17:20;;;;;;;6.72;4.13;;;36.50;63.20;;;;;;4928053;29;20119;-75
2023/06/21 14:19:46;;;;;;;8.93;4.43;;;37.90;62.60;;;;;;4928106;29;20034;-75
2023/06/21 14:22:13;;;;;;;5.47;3.92;;;38.10;60.90;;;;;;4927460;29;20286;-73
2023/06/21 14:24:39;;;;;;;7.65;4.13;;;38.20;61.70;;;;;;4930497;29;20079;-75
2023/06/21 14:27:05;;;;;;;5.90;3.78;;;38.70;61.90;;;;;;4927669;29;20055;-75
2023/06/21 14:29:31;;;;;;;4.68;4.00;;;40.20;58.90;;;;;;4927794;29;20062;-76
2023/06/21 14:31:57;;;;;;;6.35;4.00;;;40.40;59.10;;;;;;4927317;29;20361;-75
2023/06/21 14:34:23;;;;;;;5.68;3.90;;;40.70;57.90;;;;;;4927191;29;20043;-75
2023/06/21 14:36:48;;;;;;;7.22;3.67;;;40.50;57.10;;;;;;4927553;29;20377;-75
2023/06/21 14:39:14;;;;;;;6.03;3.90;;;40.60;57.90;;;;;;4942695;29;20036;-74
2023/06/21 14:41:40;;;;;;;7.68;4.00;;;39.70;57.70;;;;;;4946724;29;20040;-77
2023/06/21 14:44:06;;;;;;;6.47;4.22;;;38.60;59.90;;;;;;4946096;29;20082;-75
2023/06/21 14:46:33;;;;;;;5.53;3.88;;;38.10;59.80;;;;;;4936410;29;20032;-77
2023/06/21 14:48:59;;;;;;;7.50;3.92;;;37.60;61.20;;;;;;4926599;29;20032;-73
2023/06/21 14:51:25;;;;;;;6.47;4.50;;;37.60;61.40;;;;;;4927422;29;20352;-74
2023/06/21 14:53:50;;;;;;;6.28;3.92;;;38.50;60.30;;;;;;4927222;29;20107;-74
2023/06/21 14:56:16;;;;;;;5.25;3.97;;;39.10;59.50;;;;;;4933551;29;20042;-73
2023/06/21 14:58:42;;;;;;;7.38;4.05;;;40.50;57.30;;;;;;4931247;29;20091;-74
2023/06/21 15:01:08;;;;;;;5.55;3.60;;;41.30;55.90;;;;;;4927158;29;20067;-72
2023/06/21 15:03:34;;;;;;;6.65;3.65;;;42.70;54.90;;;;;;4945780;29;20055;-73
2023/06/21 15:05:59;;;;;;;4.80;3.28;;;41.40;54.10;;;;;;4945676;29;20036;-72
2023/06/21 15:08:25;;;;;;;5.18;3.70;;;41.10;56.10;;;;;;4945827;29;20039;-73
2023/06/21 15:10:54;;;;;;;5.57;3.40;;;42.70;54.60;;;;;;4946191;29;20091;-74
2023/06/21 15:13:20;;;;;;;7.20;3.92;;;43.80;53.60;;;;;;4945135;29;20046;-72
2023/06/21 15:15:45;;;;;;;6.57;4.30;;;45.10;53.10;;;;;;4929034;29;20023;-73
2023/06/21 15:18:14;;;;;;;3.97;3.20;;;45.00;51.80;;;;;;4945483;29;20215;-73
2023/06/21 15:20:40;;;;;;;5.78;3.83;;;43.90;51.60;;;;;;4945898;29;20305;-74
2023/06/21 15:23:06;;;;;;;5.00;3.40;;;44.30;52.40;;;;;;4945173;29;20028;-74
2023/06/21 15:25:32;;;;;;;12.48;11.23;;;45.20;52.40;;;;;;4945794;29;20329;-74
2023/06/21 15:28:01;;;;;;;5.40;3.33;;;45.80;50.70;;;;;;4945317;29;20096;-74
2023/06/21 15:30:27;;;;;;;4.93;3.50;;;46.00;50.10;;;;;;4945579;29;20042;-74
2023/06/21 15:32:53;;;;;;;6.18;3.30;;;46.00;50.60;;;;;;4945565;29;20317;-73
2023/06/21 15:35:19;;;;;;;6.22;3.55;;;46.20;51.10;;;;;;4945096;29;20046;-73
2023/06/21 15:37:44;;;;;;;4.27;3.17;;;45.90;50.60;;;;;;4945738;29;20075;-74
2023/06/21 15:40:11;;;;;;;4.15;3.28;;;45.90;49.50;;;;;;4944530;29;20460;-73
2023/06/21 15:42:37;;;;;;;5.32;3.60;;;45.80;49.70;;;;;;4945382;29;20035;-74
2023/06/21 15:45:04;;;;;;;36.50;33.38;;;45.40;49.80;;;;;;4927958;29;20044;-73
2023/06/21 15:47:30;;;;;;;7.18;4.93;;;44.70;50.90;;;;;;4946280;29;20038;-71
2023/06/21 15:49:55;;;;;;;6.65;4.57;;;44.60;51.20;;;;;;4953305;29;20026;-72
2023/06/21 15:52:21;;;;;;;5.72;4.65;;;43.80;51.00;;;;;;4954470;29;20202;-74
2023/06/21 15:54:48;;;;;;;5.50;3.67;;;42.20;52.60;;;;;;4948602;29;20043;-73
2023/06/21 15:57:14;;;;;;;7.10;3.78;;;40.80;55.20;;;;;;4944337;29;20079;-73
2023/06/21 15:59:40;;;;;;;4.38;3.45;;;39.70;55.10;;;;;;4945017;29;20095;-73
2023/06/21 16:02:07;;;;;;;6.87;4.40;;;39.30;56.90;;;;;;4944762;29;20054;-74
2023/06/21 16:04:33;;;;;;;6.10;3.88;;;39.20;56.70;;;;;;4945553;29;20040;-75
2023/06/21 16:07:03;;;;;;;5.97;3.88;;;39.80;56.60;;;;;;4944847;29;20079;-73
2023/06/21 16:09:29;;;;;;;5.90;3.80;;;41.00;54.90;;;;;;4945238;29;20035;-73
2023/06/21 16:11:55;;;;;;;6.65;4.13;;;42.10;54.10;;;;;;4944893;29;20062;-74
2023/06/21 16:14:21;;;;;;;5.47;3.95;;;43.20;51.60;;;;;;4928057;29;20044;-74
2023/06/21 16:16:47;;;;;;;4.28;3.58;;;43.00;51.90;;;;;;4945136;29;20090;-73
2023/06/21 16:19:13;;;;;;;5.38;3.63;;;43.50;53.00;;;;;;4944320;29;20032;-73
2023/06/21 16:21:39;;;;;;;5.10;3.60;;;43.80;51.40;;;;;;4945253;29;20208;-72
2023/06/21 16:24:05;;;;;;;7.50;3.78;;;43.90;51.60;;;;;;4944314;29;20068;-73
2023/06/21 16:26:31;;;;;;;6.38;3.85;;;44.40;51.40;;;;;;4945071;29;20031;-77
2023/06/21 16:28:57;;;;;;;8.48;4.22;;;43.90;51.30;;;;;;4945228;29;20020;-74
2023/06/21 16:31:23;;;;;;;8.63;7.57;;;43.50;51.50;;;;;;4944492;29;20071;-74
2023/06/21 16:33:49;;;;;;;7.53;4.10;;;43.10;52.70;;;;;;4946798;29;20206;-73
2023/06/21 16:36:26;;;;;;;6.82;5.03;;;43.40;52.10;;;;;;4913320;29;20040;-75
2023/06/21 16:38:52;;;;;;;5.40;3.45;;;43.30;51.90;;;;;;4927670;29;20035;-76
2023/06/21 16:41:18;;;;;;;5.85;3.80;;;43.30;52.20;;;;;;4945787;29;20091;-73
2023/06/21 16:43:43;;;;;;;4.80;3.70;;;43.70;51.30;;;;;;4944822;29;20046;-73
2023/06/21 16:46:09;;;;;;;5.68;3.30;;;43.00;51.80;;;;;;4944368;29;20032;-72
2023/06/21 16:48:35;;;;;;;5.25;3.90;;;41.80;53.20;;;;;;4944713;29;20039;-73
2023/06/21 16:51:01;;;;;;;5.28;3.70;;;40.20;54.30;;;;;;4955840;29;20031;-74
2023/06/21 16:53:26;;;;;;;6.13;3.95;;;38.80;56.40;;;;;;4947278;29;20114;-73
2023/06/21 16:55:52;;;;;;;6.40;4.32;;;37.60;57.70;;;;;;4964104;29;20048;-73
2023/06/21 16:58:18;;;;;;;5.88;4.00;;;36.90;58.90;;;;;;4965563;28;20082;-72
2023/06/21 17:00:43;;;;;;;7.82;4.20;;;36.00;60.60;;;;;;4957953;29;20059;-71
2023/06/21 17:03:09;;;;;;;6.18;4.18;;;35.20;61.90;;;;;;4947488;29;20047;-71
2023/06/21 17:05:35;;;;;;;7.28;4.28;;;34.90;62.90;;;;;;4948084;29;20035;-74
2023/06/21 17:08:00;;;;;;;5.43;4.30;;;34.70;62.80;;;;;;4948183;29;20066;-73
2023/06/21 17:10:26;;;;;;;7.00;4.20;;;34.90;62.90;;;;;;4947993;29;20221;-70
2023/06/21 17:12:52;;;;;;;8.35;4.20;;;35.40;62.30;;;;;;4951366;29;20034;-74
2023/06/21 17:15:17;;;;;;;7.22;3.72;;;36.10;61.20;;;;;;4957113;29;20035;-73
2023/06/21 17:17:43;;;;;;;5.38;3.80;;;36.70;60.20;;;;;;4967124;29;20035;-73
2023/06/21 17:20:10;;;;;;;4.63;3.55;;;36.80;59.80;;;;;;4950735;29;20211;-73
2023/06/21 17:22:36;;;;;;;5.88;3.85;;;36.60;60.20;;;;;;4947699;29;20083;-71
2023/06/21 17:25:02;;;;;;;8.13;5.95;;;36.50;60.20;;;;;;4947884;29;20027;-74
2023/06/21 17:27:28;;;;;;;7.10;5.32;;;36.50;60.40;;;;;;4947633;29;20042;-74
2023/06/21 17:29:54;;;;;;;6.13;4.35;;;36.20;60.20;;;;;;4947271;29;20043;-73
2023/06/21 17:32:19;;;;;;;6.53;4.07;;;35.30;61.60;;;;;;4947139;29;20352;-74
2023/06/21 17:34:45;;;;;;;7.07;4.75;;;35.00;62.10;;;;;;4947708;29;20129;-70
2023/06/21 17:37:11;;;;;;;5.78;3.83;;;34.30;63.40;;;;;;4947616;29;20024;-74
2023/06/21 17:39:37;;;;;;;5.55;4.05;;;34.30;64.00;;;;;;4947711;29;20031;-73
2023/06/21 17:42:05;;;;;;;6.18;3.85;;;34.70;63.50;;;;;;4947392;29;20027;-73
2023/06/21 17:44:30;;;;;;;7.78;3.65;;;35.20;62.50;;;;;;4947407;29;20221;-74